sensor_id;sensor_type;location;lat;lon;timestamp;P1;durP1;ratioP1;P2;durP2;ratioP2
31091;SDS011;67728;53.122;12.776;2023-04-01T00:00:12;314.60;;;62.17;;
31091;SDS011;67728;53.122;12.776;2023-04-01T00:01:44;319.87;;;63.20;;
31091;SDS011;67728;53.122;12.776;2023-04-01T00:03:17;315.57;;;62.53;;
31091;SDS011;67728;53.122;12.776;2023-04-01T00:04:49;313.57;;;62.67;;
31091;SDS011;67728;53.122;12.776;2023-04-01T00:06:21;314.20;;;62.30;;
31091;SDS011;67728;53.122;12.776;2023-04-01T00:07:53;313.70;;;61.58;;
31091;SDS011;67728;53.122;12.776;2023-04-01T00:09:24;314.87;;;62.37;;
31091;SDS011;67728;53.122;12.776;2023-04-01T00:10:56;313.98;;;63.10;;
31091;SDS011;67728;53.122;12.776;2023-04-01T00:12:27;314.52;;;63.03;;
31091;SDS011;67728;53.122;12.776;2023-04-01T00:13:58;315.33;;;63.35;;
31091;SDS011;67728;53.122;12.776;2023-04-01T00:15:30;314.00;;;62.78;;
31091;SDS011;67728;53.122;12.776;2023-04-01T00:17:01;315.08;;;65.53;;
31091;SDS011;67728;53.122;12.776;2023-04-01T00:18:34;315.27;;;62.80;;
31091;SDS011;67728;53.122;12.776;2023-04-01T00:20:06;316.70;;;63.90;;
31091;SDS011;67728;53.122;12.776;2023-04-01T00:21:39;319.48;;;65.35;;
31091;SDS011;67728;53.122;12.776;2023-04-01T00:23:11;318.43;;;62.77;;
31091;SDS011;67728;53.122;12.776;2023-04-01T00:24:43;315.90;;;63.67;;
31091;SDS011;67728;53.122;12.776;2023-04-01T00:26:14;314.87;;;63.03;;
31091;SDS011;67728;53.122;12.776;2023-04-01T00:27:49;314.57;;;62.13;;
31091;SDS011;67728;53.122;12.776;2023-04-01T00:29:20;318.27;;;64.77;;
31091;SDS011;67728;53.122;12.776;2023-04-01T00:30:54;315.73;;;63.27;;
31091;SDS011;67728;53.122;12.776;2023-04-01T00:32:25;316.02;;;62.67;;
31091;SDS011;67728;53.122;12.776;2023-04-01T00:33:58;315.08;;;62.75;;
31091;SDS011;67728;53.122;12.776;2023-04-01T00:35:30;313.07;;;62.60;;
31091;SDS011;67728;53.122;12.776;2023-04-01T00:37:02;312.67;;;62.07;;
31091;SDS011;67728;53.122;12.776;2023-04-01T00:38:33;312.67;;;62.57;;
31091;SDS011;67728;53.122;12.776;2023-04-01T00:40:06;314.50;;;61.20;;
31091;SDS011;67728;53.122;12.776;2023-04-01T00:41:39;312.37;;;63.53;;
31091;SDS011;67728;53.122;12.776;2023-04-01T00:43:11;313.67;;;62.83;;
31091;SDS011;67728;53.122;12.776;2023-04-01T00:44:46;314.27;;;61.03;;
31091;SDS011;67728;53.122;12.776;2023-04-01T00:46:21;314.03;;;61.47;;
31091;SDS011;67728;53.122;12.776;2023-04-01T00:47:53;311.63;;;61.10;;
31091;SDS011;67728;53.122;12.776;2023-04-01T00:49:26;315.00;;;62.83;;
31091;SDS011;67728;53.122;12.776;2023-04-01T00:51:02;312.00;;;62.10;;
31091;SDS011;67728;53.122;12.776;2023-04-01T00:52:37;311.77;;;61.47;;
31091;SDS011;67728;53.122;12.776;2023-04-01T00:54:08;311.27;;;60.13;;
31091;SDS011;67728;53.122;12.776;2023-04-01T00:55:42;309.93;;;59.57;;
31091;SDS011;67728;53.122;12.776;2023-04-01T00:57:17;313.00;;;62.73;;
31091;SDS011;67728;53.122;12.776;2023-04-01T00:58:54;309.70;;;59.40;;
31091;SDS011;67728;53.122;12.776;2023-04-01T01:00:29;310.57;;;66.87;;
31091;SDS011;67728;53.122;12.776;2023-04-01T01:02:02;314.43;;;61.70;;
31091;SDS011;67728;53.122;12.776;2023-04-01T01:03:34;310.03;;;60.77;;
31091;SDS011;67728;53.122;12.776;2023-04-01T01:05:08;310.97;;;61.83;;
31091;SDS011;67728;53.122;12.776;2023-04-01T01:06:43;313.10;;;66.87;;
31091;SDS011;67728;53.122;12.776;2023-04-01T01:08:25;319.17;;;68.90;;
31091;SDS011;67728;53.122;12.776;2023-04-01T01:10:07;312.53;;;61.97;;
31091;SDS011;67728;53.122;12.776;2023-04-01T01:11:47;311.00;;;60.63;;
31091;SDS011;67728;53.122;12.776;2023-04-01T01:13:23;311.55;;;60.33;;
31091;SDS011;67728;53.122;12.776;2023-04-01T01:15:06;311.17;;;60.87;;
31091;SDS011;67728;53.122;12.776;2023-04-01T01:16:43;313.23;;;61.47;;
31091;SDS011;67728;53.122;12.776;2023-04-01T01:18:18;315.37;;;62.13;;
31091;SDS011;67728;53.122;12.776;2023-04-01T01:22:12;317.87;;;64.30;;
31091;SDS011;67728;53.122;12.776;2023-04-01T01:26:01;310.87;;;60.47;;
31091;SDS011;67728;53.122;12.776;2023-04-01T01:28:02;313.47;;;60.70;;
31091;SDS011;67728;53.122;12.776;2023-04-01T01:29:58;311.03;;;60.53;;
31091;SDS011;67728;53.122;12.776;2023-04-01T01:31:39;311.70;;;61.43;;
31091;SDS011;67728;53.122;12.776;2023-04-01T01:33:30;316.53;;;62.13;;
31091;SDS011;67728;53.122;12.776;2023-04-01T01:35:20;314.47;;;62.43;;
31091;SDS011;67728;53.122;12.776;2023-04-01T01:36:56;312.67;;;62.17;;
31091;SDS011;67728;53.122;12.776;2023-04-01T01:38:31;312.52;;;61.78;;
31091;SDS011;67728;53.122;12.776;2023-04-01T01:40:07;315.20;;;63.00;;
31091;SDS011;67728;53.122;12.776;2023-04-01T01:41:42;314.87;;;62.57;;
31091;SDS011;67728;53.122;12.776;2023-04-01T01:43:18;314.42;;;62.53;;
31091;SDS011;67728;53.122;12.776;2023-04-01T01:44:54;313.83;;;63.73;;
31091;SDS011;67728;53.122;12.776;2023-04-01T01:46:30;313.50;;;62.50;;
31091;SDS011;67728;53.122;12.776;2023-04-01T01:48:02;312.85;;;62.88;;
31091;SDS011;67728;53.122;12.776;2023-04-01T01:49:35;311.30;;;62.40;;
31091;SDS011;67728;53.122;12.776;2023-04-01T01:51:09;311.43;;;62.10;;
31091;SDS011;67728;53.122;12.776;2023-04-01T01:52:41;310.57;;;61.00;;
31091;SDS011;67728;53.122;12.776;2023-04-01T01:54:13;312.30;;;62.00;;
31091;SDS011;67728;53.122;12.776;2023-04-01T01:55:45;312.30;;;62.13;;
31091;SDS011;67728;53.122;12.776;2023-04-01T01:57:20;319.27;;;64.68;;
31091;SDS011;67728;53.122;12.776;2023-04-01T01:58:55;312.67;;;64.28;;
31091;SDS011;67728;53.122;12.776;2023-04-01T02:00:31;311.97;;;62.30;;
31091;SDS011;67728;53.122;12.776;2023-04-01T02:02:04;312.90;;;62.13;;
31091;SDS011;67728;53.122;12.776;2023-04-01T02:03:39;324.47;;;81.47;;
31091;SDS011;67728;53.122;12.776;2023-04-01T02:05:14;313.60;;;62.10;;
31091;SDS011;67728;53.122;12.776;2023-04-01T02:06:52;312.50;;;62.43;;
31091;SDS011;67728;53.122;12.776;2023-04-01T02:08:28;313.88;;;62.55;;
31091;SDS011;67728;53.122;12.776;2023-04-01T02:10:05;314.50;;;62.70;;
31091;SDS011;67728;53.122;12.776;2023-04-01T02:11:38;316.80;;;67.33;;
31091;SDS011;67728;53.122;12.776;2023-04-01T02:13:16;317.00;;;63.38;;
31091;SDS011;67728;53.122;12.776;2023-04-01T02:14:54;315.23;;;63.40;;
31091;SDS011;67728;53.122;12.776;2023-04-01T02:16:32;315.15;;;62.92;;
31091;SDS011;67728;53.122;12.776;2023-04-01T02:18:06;315.83;;;63.03;;
31091;SDS011;67728;53.122;12.776;2023-04-01T02:19:39;313.52;;;62.83;;
31091;SDS011;67728;53.122;12.776;2023-04-01T02:21:14;313.85;;;62.72;;
31091;SDS011;67728;53.122;12.776;2023-04-01T02:22:48;314.38;;;62.97;;
31091;SDS011;67728;53.122;12.776;2023-04-01T02:24:21;317.35;;;63.22;;
31091;SDS011;67728;53.122;12.776;2023-04-01T02:25:54;315.13;;;63.28;;
31091;SDS011;67728;53.122;12.776;2023-04-01T02:27:25;316.00;;;63.38;;
31091;SDS011;67728;53.122;12.776;2023-04-01T02:28:57;314.83;;;62.63;;
31091;SDS011;67728;53.122;12.776;2023-04-01T02:30:32;314.67;;;62.50;;
31091;SDS011;67728;53.122;12.776;2023-04-01T02:32:05;314.02;;;62.53;;
31091;SDS011;67728;53.122;12.776;2023-04-01T02:33:38;313.55;;;63.03;;
31091;SDS011;67728;53.122;12.776;2023-04-01T02:35:11;315.83;;;62.70;;
31091;SDS011;67728;53.122;12.776;2023-04-01T02:36:45;313.67;;;62.47;;
31091;SDS011;67728;53.122;12.776;2023-04-01T02:38:19;316.87;;;63.57;;
31091;SDS011;67728;53.122;12.776;2023-04-01T02:39:51;314.67;;;62.70;;
31091;SDS011;67728;53.122;12.776;2023-04-01T02:41:23;314.02;;;64.10;;
31091;SDS011;67728;53.122;12.776;2023-04-01T02:42:54;314.88;;;63.58;;
31091;SDS011;67728;53.122;12.776;2023-04-01T02:44:26;315.85;;;62.95;;
31091;SDS011;67728;53.122;12.776;2023-04-01T02:45:58;315.15;;;63.50;;
31091;SDS011;67728;53.122;12.776;2023-04-01T02:47:29;318.05;;;64.53;;
31091;SDS011;67728;53.122;12.776;2023-04-01T02:49:01;315.08;;;63.92;;
31091;SDS011;67728;53.122;12.776;2023-04-01T02:50:32;316.50;;;64.75;;
31091;SDS011;67728;53.122;12.776;2023-04-01T02:52:04;315.58;;;64.22;;
31091;SDS011;67728;53.122;12.776;2023-04-01T02:53:37;314.33;;;64.47;;
31091;SDS011;67728;53.122;12.776;2023-04-01T02:55:09;317.33;;;65.03;;
31091;SDS011;67728;53.122;12.776;2023-04-01T02:56:40;316.45;;;65.00;;
31091;SDS011;67728;53.122;12.776;2023-04-01T02:58:12;316.27;;;66.07;;
31091;SDS011;67728;53.122;12.776;2023-04-01T02:59:44;317.52;;;65.45;;
31091;SDS011;67728;53.122;12.776;2023-04-01T03:01:15;316.50;;;65.32;;
31091;SDS011;67728;53.122;12.776;2023-04-01T03:02:47;316.08;;;65.15;;
31091;SDS011;67728;53.122;12.776;2023-04-01T03:04:18;317.85;;;64.90;;
31091;SDS011;67728;53.122;12.776;2023-04-01T03:05:50;314.85;;;64.32;;
31091;SDS011;67728;53.122;12.776;2023-04-01T03:07:25;317.80;;;64.28;;
31091;SDS011;67728;53.122;12.776;2023-04-01T03:08:57;318.30;;;64.13;;
31091;SDS011;67728;53.122;12.776;2023-04-01T03:10:29;316.27;;;63.17;;
31091;SDS011;67728;53.122;12.776;2023-04-01T03:11:59;316.95;;;64.35;;
31091;SDS011;67728;53.122;12.776;2023-04-01T03:13:31;313.73;;;61.58;;
31091;SDS011;67728;53.122;12.776;2023-04-01T03:15:03;314.27;;;62.88;;
31091;SDS011;67728;53.122;12.776;2023-04-01T03:16:34;315.37;;;62.83;;
31091;SDS011;67728;53.122;12.776;2023-04-01T03:18:06;313.70;;;61.83;;
31091;SDS011;67728;53.122;12.776;2023-04-01T03:19:37;313.60;;;62.20;;
31091;SDS011;67728;53.122;12.776;2023-04-01T03:21:14;313.87;;;62.30;;
31091;SDS011;67728;53.122;12.776;2023-04-01T03:22:47;312.37;;;61.97;;
31091;SDS011;67728;53.122;12.776;2023-04-01T03:24:20;316.67;;;63.50;;
31091;SDS011;67728;53.122;12.776;2023-04-01T03:25:52;315.37;;;63.50;;
31091;SDS011;67728;53.122;12.776;2023-04-01T03:27:24;313.67;;;63.07;;
31091;SDS011;67728;53.122;12.776;2023-04-01T03:28:54;315.87;;;63.87;;
31091;SDS011;67728;53.122;12.776;2023-04-01T03:30:26;314.17;;;63.97;;
31091;SDS011;67728;53.122;12.776;2023-04-01T03:31:59;316.03;;;62.83;;
31091;SDS011;67728;53.122;12.776;2023-04-01T03:33:31;312.93;;;62.10;;
31091;SDS011;67728;53.122;12.776;2023-04-01T03:35:03;313.63;;;62.97;;
31091;SDS011;67728;53.122;12.776;2023-04-01T03:36:36;311.30;;;61.60;;
31091;SDS011;67728;53.122;12.776;2023-04-01T03:38:07;312.40;;;61.10;;
31091;SDS011;67728;53.122;12.776;2023-04-01T03:39:40;311.60;;;60.80;;
31091;SDS011;67728;53.122;12.776;2023-04-01T03:41:12;310.77;;;59.97;;
31091;SDS011;67728;53.122;12.776;2023-04-01T03:42:44;313.43;;;59.87;;
31091;SDS011;67728;53.122;12.776;2023-04-01T03:44:16;309.47;;;59.60;;
31091;SDS011;67728;53.122;12.776;2023-04-01T03:45:48;307.50;;;59.03;;
31091;SDS011;67728;53.122;12.776;2023-04-01T03:47:21;308.97;;;59.70;;
31091;SDS011;67728;53.122;12.776;2023-04-01T03:48:53;308.03;;;59.30;;
31091;SDS011;67728;53.122;12.776;2023-04-01T03:50:25;308.27;;;59.23;;
31091;SDS011;67728;53.122;12.776;2023-04-01T03:51:56;308.63;;;59.07;;
31091;SDS011;67728;53.122;12.776;2023-04-01T03:53:27;309.53;;;58.60;;
31091;SDS011;67728;53.122;12.776;2023-04-01T03:55:00;308.80;;;58.60;;
31091;SDS011;67728;53.122;12.776;2023-04-01T03:56:31;307.27;;;58.40;;
31091;SDS011;67728;53.122;12.776;2023-04-01T03:58:03;307.53;;;58.27;;
31091;SDS011;67728;53.122;12.776;2023-04-01T03:59:35;308.47;;;59.37;;
31091;SDS011;67728;53.122;12.776;2023-04-01T04:01:14;308.10;;;58.87;;
31091;SDS011;67728;53.122;12.776;2023-04-01T04:02:45;310.13;;;58.60;;
31091;SDS011;67728;53.122;12.776;2023-04-01T04:04:17;306.43;;;58.20;;
31091;SDS011;67728;53.122;12.776;2023-04-01T04:05:49;307.27;;;59.13;;
31091;SDS011;67728;53.122;12.776;2023-04-01T04:07:20;307.07;;;58.33;;
31091;SDS011;67728;53.122;12.776;2023-04-01T04:08:52;306.13;;;58.07;;
31091;SDS011;67728;53.122;12.776;2023-04-01T04:10:25;306.73;;;57.87;;
31091;SDS011;67728;53.122;12.776;2023-04-01T04:11:59;305.30;;;58.17;;
31091;SDS011;67728;53.122;12.776;2023-04-01T04:13:31;306.60;;;58.70;;
31091;SDS011;67728;53.122;12.776;2023-04-01T04:15:01;306.40;;;58.47;;
31091;SDS011;67728;53.122;12.776;2023-04-01T04:16:34;305.67;;;58.47;;
31091;SDS011;67728;53.122;12.776;2023-04-01T04:18:07;306.17;;;58.57;;
31091;SDS011;67728;53.122;12.776;2023-04-01T04:19:37;305.03;;;58.30;;
31091;SDS011;67728;53.122;12.776;2023-04-01T04:21:11;305.77;;;58.47;;
31091;SDS011;67728;53.122;12.776;2023-04-01T04:22:44;305.47;;;57.93;;
31091;SDS011;67728;53.122;12.776;2023-04-01T04:24:14;304.63;;;58.13;;
31091;SDS011;67728;53.122;12.776;2023-04-01T04:25:54;306.80;;;58.30;;
31091;SDS011;67728;53.122;12.776;2023-04-01T04:27:27;305.47;;;57.93;;
31091;SDS011;67728;53.122;12.776;2023-04-01T04:28:59;306.10;;;57.70;;
31091;SDS011;67728;53.122;12.776;2023-04-01T04:30:31;305.43;;;58.07;;
31091;SDS011;67728;53.122;12.776;2023-04-01T04:32:03;305.83;;;58.70;;
31091;SDS011;67728;53.122;12.776;2023-04-01T04:33:35;305.57;;;57.73;;
31091;SDS011;67728;53.122;12.776;2023-04-01T04:35:06;305.30;;;57.47;;
31091;SDS011;67728;53.122;12.776;2023-04-01T04:36:38;304.33;;;57.53;;
31091;SDS011;67728;53.122;12.776;2023-04-01T04:38:09;306.77;;;58.53;;
31091;SDS011;67728;53.122;12.776;2023-04-01T04:39:41;307.03;;;57.90;;
31091;SDS011;67728;53.122;12.776;2023-04-01T04:41:14;306.13;;;58.10;;
31091;SDS011;67728;53.122;12.776;2023-04-01T04:42:47;305.27;;;57.63;;
31091;SDS011;67728;53.122;12.776;2023-04-01T04:44:18;306.67;;;58.07;;
31091;SDS011;67728;53.122;12.776;2023-04-01T04:45:50;304.70;;;58.00;;
31091;SDS011;67728;53.122;12.776;2023-04-01T04:47:22;305.80;;;57.67;;
31091;SDS011;67728;53.122;12.776;2023-04-01T04:48:54;304.57;;;57.33;;
31091;SDS011;67728;53.122;12.776;2023-04-01T04:50:25;304.27;;;57.60;;
31091;SDS011;67728;53.122;12.776;2023-04-01T04:51:56;305.00;;;57.70;;
31091;SDS011;67728;53.122;12.776;2023-04-01T04:53:28;303.17;;;56.93;;
31091;SDS011;67728;53.122;12.776;2023-04-01T04:55:00;304.47;;;57.57;;
31091;SDS011;67728;53.122;12.776;2023-04-01T04:56:33;305.60;;;57.60;;
31091;SDS011;67728;53.122;12.776;2023-04-01T04:58:05;307.40;;;58.23;;
31091;SDS011;67728;53.122;12.776;2023-04-01T04:59:37;313.93;;;59.07;;
31091;SDS011;67728;53.122;12.776;2023-04-01T05:01:09;304.27;;;57.37;;
31091;SDS011;67728;53.122;12.776;2023-04-01T05:02:42;327.03;;;60.97;;
31091;SDS011;67728;53.122;12.776;2023-04-01T05:04:14;301.20;;;56.93;;
31091;SDS011;67728;53.122;12.776;2023-04-01T05:05:49;302.40;;;56.57;;
31091;SDS011;67728;53.122;12.776;2023-04-01T05:07:21;320.67;;;60.67;;
31091;SDS011;67728;53.122;12.776;2023-04-01T05:08:53;334.97;;;62.70;;
31091;SDS011;67728;53.122;12.776;2023-04-01T05:10:24;312.90;;;58.87;;
31091;SDS011;67728;53.122;12.776;2023-04-01T05:11:57;302.90;;;56.73;;
31091;SDS011;67728;53.122;12.776;2023-04-01T05:13:29;304.80;;;57.47;;
31091;SDS011;67728;53.122;12.776;2023-04-01T05:15:01;306.13;;;57.80;;
31091;SDS011;67728;53.122;12.776;2023-04-01T05:16:32;301.47;;;56.73;;
31091;SDS011;67728;53.122;12.776;2023-04-01T05:18:04;301.87;;;56.97;;
31091;SDS011;67728;53.122;12.776;2023-04-01T05:19:35;303.17;;;56.77;;
31091;SDS011;67728;53.122;12.776;2023-04-01T05:21:06;304.70;;;57.33;;
31091;SDS011;67728;53.122;12.776;2023-04-01T05:22:39;306.10;;;57.57;;
31091;SDS011;67728;53.122;12.776;2023-04-01T05:24:11;304.43;;;57.50;;
31091;SDS011;67728;53.122;12.776;2023-04-01T05:25:43;303.97;;;57.67;;
31091;SDS011;67728;53.122;12.776;2023-04-01T05:27:16;308.17;;;58.20;;
31091;SDS011;67728;53.122;12.776;2023-04-01T05:28:47;307.13;;;57.77;;
31091;SDS011;67728;53.122;12.776;2023-04-01T05:30:18;304.87;;;57.60;;
31091;SDS011;67728;53.122;12.776;2023-04-01T05:31:50;306.67;;;57.70;;
31091;SDS011;67728;53.122;12.776;2023-04-01T05:33:22;303.50;;;57.43;;
31091;SDS011;67728;53.122;12.776;2023-04-01T05:34:53;301.77;;;56.87;;
31091;SDS011;67728;53.122;12.776;2023-04-01T05:36:25;302.07;;;56.70;;
31091;SDS011;67728;53.122;12.776;2023-04-01T05:37:57;303.97;;;57.37;;
31091;SDS011;67728;53.122;12.776;2023-04-01T05:39:28;305.47;;;56.93;;
31091;SDS011;67728;53.122;12.776;2023-04-01T05:41:00;301.20;;;56.70;;
31091;SDS011;67728;53.122;12.776;2023-04-01T05:42:34;301.13;;;56.63;;
31091;SDS011;67728;53.122;12.776;2023-04-01T05:44:05;303.47;;;56.60;;
31091;SDS011;67728;53.122;12.776;2023-04-01T05:45:37;303.17;;;57.03;;
31091;SDS011;67728;53.122;12.776;2023-04-01T05:47:09;303.13;;;57.07;;
31091;SDS011;67728;53.122;12.776;2023-04-01T05:48:39;310.30;;;58.17;;
31091;SDS011;67728;53.122;12.776;2023-04-01T05:50:11;302.00;;;56.80;;
31091;SDS011;67728;53.122;12.776;2023-04-01T05:51:43;301.50;;;56.90;;
31091;SDS011;67728;53.122;12.776;2023-04-01T05:53:15;302.07;;;56.60;;
31091;SDS011;67728;53.122;12.776;2023-04-01T05:54:47;299.07;;;56.10;;
31091;SDS011;67728;53.122;12.776;2023-04-01T05:56:18;303.63;;;56.87;;
31091;SDS011;67728;53.122;12.776;2023-04-01T05:57:51;302.80;;;56.70;;
31091;SDS011;67728;53.122;12.776;2023-04-01T05:59:23;302.53;;;57.37;;
31091;SDS011;67728;53.122;12.776;2023-04-01T06:00:59;301.40;;;56.90;;
31091;SDS011;67728;53.122;12.776;2023-04-01T06:02:32;300.37;;;56.13;;
31091;SDS011;67728;53.122;12.776;2023-04-01T06:04:03;301.33;;;56.57;;
31091;SDS011;67728;53.122;12.776;2023-04-01T06:05:38;298.90;;;55.97;;
31091;SDS011;67728;53.122;12.776;2023-04-01T06:07:11;304.17;;;57.30;;
31091;SDS011;67728;53.122;12.776;2023-04-01T06:08:43;306.43;;;57.97;;
31091;SDS011;67728;53.122;12.776;2023-04-01T06:10:16;302.60;;;56.80;;
31091;SDS011;67728;53.122;12.776;2023-04-01T06:12:00;303.30;;;57.23;;
31091;SDS011;67728;53.122;12.776;2023-04-01T06:15:49;300.67;;;56.00;;
31091;SDS011;67728;53.122;12.776;2023-04-01T06:17:34;303.83;;;56.67;;
31091;SDS011;67728;53.122;12.776;2023-04-01T06:19:23;302.07;;;56.47;;
31091;SDS011;67728;53.122;12.776;2023-04-01T06:21:02;299.93;;;56.23;;
31091;SDS011;67728;53.122;12.776;2023-04-01T06:22:58;302.87;;;56.90;;
31091;SDS011;67728;53.122;12.776;2023-04-01T06:24:49;300.43;;;56.10;;
31091;SDS011;67728;53.122;12.776;2023-04-01T06:26:36;300.43;;;56.10;;
31091;SDS011;67728;53.122;12.776;2023-04-01T06:28:23;300.23;;;56.43;;
31091;SDS011;67728;53.122;12.776;2023-04-01T06:30:27;302.73;;;57.30;;
31091;SDS011;67728;53.122;12.776;2023-04-01T06:32:10;302.90;;;57.10;;
31091;SDS011;67728;53.122;12.776;2023-04-01T06:33:58;302.67;;;57.13;;
31091;SDS011;67728;53.122;12.776;2023-04-01T06:39:51;300.00;;;56.43;;
31091;SDS011;67728;53.122;12.776;2023-04-01T06:43:44;301.07;;;56.50;;
31091;SDS011;67728;53.122;12.776;2023-04-01T06:45:29;303.83;;;57.07;;
31091;SDS011;67728;53.122;12.776;2023-04-01T06:47:12;300.00;;;56.10;;
31091;SDS011;67728;53.122;12.776;2023-04-01T06:48:59;300.40;;;56.17;;
31091;SDS011;67728;53.122;12.776;2023-04-01T06:50:41;298.50;;;55.67;;
31091;SDS011;67728;53.122;12.776;2023-04-01T06:52:22;302.83;;;56.83;;
31091;SDS011;67728;53.122;12.776;2023-04-01T06:54:00;300.87;;;56.60;;
31091;SDS011;67728;53.122;12.776;2023-04-01T06:55:38;301.33;;;56.60;;
31091;SDS011;67728;53.122;12.776;2023-04-01T06:57:19;301.93;;;57.20;;
31091;SDS011;67728;53.122;12.776;2023-04-01T06:58:56;300.73;;;56.60;;
31091;SDS011;67728;53.122;12.776;2023-04-01T07:00:32;301.57;;;57.10;;
31091;SDS011;67728;53.122;12.776;2023-04-01T07:02:11;301.97;;;56.93;;
31091;SDS011;67728;53.122;12.776;2023-04-01T07:03:51;302.33;;;56.57;;
31091;SDS011;67728;53.122;12.776;2023-04-01T07:05:29;300.33;;;56.20;;
31091;SDS011;67728;53.122;12.776;2023-04-01T07:07:03;300.83;;;56.60;;
31091;SDS011;67728;53.122;12.776;2023-04-01T07:08:40;301.17;;;56.17;;
31091;SDS011;67728;53.122;12.776;2023-04-01T07:10:16;302.13;;;56.60;;
31091;SDS011;67728;53.122;12.776;2023-04-01T07:11:51;299.57;;;55.80;;
31091;SDS011;67728;53.122;12.776;2023-04-01T07:13:28;301.70;;;56.40;;
31091;SDS011;67728;53.122;12.776;2023-04-01T07:15:06;303.50;;;57.27;;
31091;SDS011;67728;53.122;12.776;2023-04-01T07:16:48;299.40;;;55.60;;
31091;SDS011;67728;53.122;12.776;2023-04-01T07:18:29;302.03;;;56.40;;
31091;SDS011;67728;53.122;12.776;2023-04-01T07:20:03;303.87;;;57.23;;
31091;SDS011;67728;53.122;12.776;2023-04-01T07:21:45;301.50;;;56.43;;
31091;SDS011;67728;53.122;12.776;2023-04-01T07:23:22;301.90;;;56.77;;
31091;SDS011;67728;53.122;12.776;2023-04-01T07:24:56;302.83;;;56.80;;
31091;SDS011;67728;53.122;12.776;2023-04-01T07:26:32;301.20;;;56.33;;
31091;SDS011;67728;53.122;12.776;2023-04-01T07:28:05;300.77;;;56.27;;
31091;SDS011;67728;53.122;12.776;2023-04-01T07:29:42;300.07;;;56.73;;
31091;SDS011;67728;53.122;12.776;2023-04-01T07:31:15;302.17;;;57.10;;
31091;SDS011;67728;53.122;12.776;2023-04-01T07:32:56;300.63;;;56.73;;
31091;SDS011;67728;53.122;12.776;2023-04-01T07:34:35;302.00;;;56.90;;
31091;SDS011;67728;53.122;12.776;2023-04-01T07:36:18;301.30;;;56.63;;
31091;SDS011;67728;53.122;12.776;2023-04-01T07:38:04;299.50;;;56.33;;
31091;SDS011;67728;53.122;12.776;2023-04-01T07:39:45;305.67;;;57.60;;
31091;SDS011;67728;53.122;12.776;2023-04-01T07:41:28;300.80;;;56.60;;
31091;SDS011;67728;53.122;12.776;2023-04-01T07:45:08;300.73;;;56.33;;
31091;SDS011;67728;53.122;12.776;2023-04-01T07:46:51;302.10;;;56.17;;
31091;SDS011;67728;53.122;12.776;2023-04-01T07:48:29;299.63;;;56.23;;
31091;SDS011;67728;53.122;12.776;2023-04-01T07:50:08;302.83;;;57.07;;
31091;SDS011;67728;53.122;12.776;2023-04-01T07:51:49;301.63;;;56.77;;
31091;SDS011;67728;53.122;12.776;2023-04-01T07:53:32;307.27;;;57.50;;
31091;SDS011;67728;53.122;12.776;2023-04-01T07:55:09;304.23;;;56.93;;
31091;SDS011;67728;53.122;12.776;2023-04-01T07:56:49;303.97;;;56.90;;
31091;SDS011;67728;53.122;12.776;2023-04-01T07:58:28;302.40;;;56.97;;
31091;SDS011;67728;53.122;12.776;2023-04-01T08:00:07;301.87;;;56.40;;
31091;SDS011;67728;53.122;12.776;2023-04-01T08:01:48;301.50;;;56.40;;
31091;SDS011;67728;53.122;12.776;2023-04-01T08:03:38;305.43;;;56.60;;
31091;SDS011;67728;53.122;12.776;2023-04-01T08:05:23;300.70;;;56.70;;
31091;SDS011;67728;53.122;12.776;2023-04-01T08:06:58;303.70;;;57.57;;
31091;SDS011;67728;53.122;12.776;2023-04-01T08:08:40;300.37;;;56.53;;
31091;SDS011;67728;53.122;12.776;2023-04-01T08:10:23;300.37;;;56.20;;
31091;SDS011;67728;53.122;12.776;2023-04-01T08:12:08;303.40;;;57.00;;
31091;SDS011;67728;53.122;12.776;2023-04-01T08:13:51;299.80;;;56.47;;
31091;SDS011;67728;53.122;12.776;2023-04-01T08:15:31;301.27;;;55.73;;
31091;SDS011;67728;53.122;12.776;2023-04-01T08:17:10;301.20;;;56.13;;
31091;SDS011;67728;53.122;12.776;2023-04-01T08:18:51;300.20;;;56.27;;
31091;SDS011;67728;53.122;12.776;2023-04-01T08:20:33;299.30;;;55.90;;
31091;SDS011;67728;53.122;12.776;2023-04-01T08:22:09;301.63;;;56.80;;
31091;SDS011;67728;53.122;12.776;2023-04-01T08:23:46;300.37;;;56.50;;
31091;SDS011;67728;53.122;12.776;2023-04-01T08:25:20;300.67;;;56.53;;
31091;SDS011;67728;53.122;12.776;2023-04-01T08:26:56;302.33;;;56.90;;
31091;SDS011;67728;53.122;12.776;2023-04-01T08:28:32;304.63;;;57.37;;
31091;SDS011;67728;53.122;12.776;2023-04-01T08:30:16;302.33;;;56.87;;
31091;SDS011;67728;53.122;12.776;2023-04-01T08:31:51;312.80;;;58.67;;
31091;SDS011;67728;53.122;12.776;2023-04-01T08:33:27;304.10;;;57.47;;
31091;SDS011;67728;53.122;12.776;2023-04-01T08:35:06;299.53;;;56.80;;
31091;SDS011;67728;53.122;12.776;2023-04-01T08:36:41;299.67;;;57.10;;
31091;SDS011;67728;53.122;12.776;2023-04-01T08:38:17;306.13;;;58.20;;
31091;SDS011;67728;53.122;12.776;2023-04-01T08:39:54;300.63;;;56.77;;
31091;SDS011;67728;53.122;12.776;2023-04-01T08:45:41;299.27;;;55.97;;
31091;SDS011;67728;53.122;12.776;2023-04-01T08:47:40;300.53;;;56.43;;
31091;SDS011;67728;53.122;12.776;2023-04-01T08:49:36;299.60;;;55.77;;
31091;SDS011;67728;53.122;12.776;2023-04-01T08:51:35;300.33;;;56.23;;
31091;SDS011;67728;53.122;12.776;2023-04-01T08:53:42;298.97;;;56.30;;
31091;SDS011;67728;53.122;12.776;2023-04-01T08:57:25;302.20;;;56.63;;
31091;SDS011;67728;53.122;12.776;2023-04-01T08:59:18;301.10;;;56.23;;
31091;SDS011;67728;53.122;12.776;2023-04-01T09:01:08;301.27;;;56.60;;
31091;SDS011;67728;53.122;12.776;2023-04-01T09:02:51;302.77;;;57.00;;
31091;SDS011;67728;53.122;12.776;2023-04-01T09:06:52;300.83;;;56.60;;
31091;SDS011;67728;53.122;12.776;2023-04-01T09:08:37;303.17;;;56.90;;
31091;SDS011;67728;53.122;12.776;2023-04-01T09:10:29;302.20;;;57.23;;
31091;SDS011;67728;53.122;12.776;2023-04-01T09:12:23;301.80;;;56.77;;
31091;SDS011;67728;53.122;12.776;2023-04-01T09:14:17;299.53;;;55.83;;
31091;SDS011;67728;53.122;12.776;2023-04-01T09:16:08;298.70;;;55.30;;
31091;SDS011;67728;53.122;12.776;2023-04-01T09:17:58;299.87;;;56.20;;
31091;SDS011;67728;53.122;12.776;2023-04-01T09:19:48;300.00;;;56.23;;
31091;SDS011;67728;53.122;12.776;2023-04-01T09:21:42;300.87;;;56.57;;
31091;SDS011;67728;53.122;12.776;2023-04-01T09:23:35;319.17;;;60.63;;
31091;SDS011;67728;53.122;12.776;2023-04-01T09:25:49;301.20;;;56.80;;
31091;SDS011;67728;53.122;12.776;2023-04-01T09:27:29;301.83;;;57.10;;
31091;SDS011;67728;53.122;12.776;2023-04-01T09:29:09;300.73;;;56.33;;